createdAt,value
2023-04-18T00:00:28.348Z,8.52
2023-04-18T00:02:56.522Z,8.36
2023-04-18T00:05:24.833Z,8.30
2023-04-18T00:07:53.454Z,8.26
2023-04-18T00:10:21.537Z,8.47
2023-04-18T00:12:49.532Z,8.48
2023-04-18T00:15:18.562Z,8.37
2023-04-18T00:17:48.389Z,8.34
2023-04-18T00:20:16.408Z,8.40
2023-04-18T00:22:46.632Z,8.25
2023-04-18T00:25:14.651Z,8.27
2023-04-18T00:27:43.057Z,8.32
2023-04-18T00:30:11.905Z,8.35
2023-04-18T00:32:39.990Z,8.32
2023-04-18T00:35:10.048Z,8.31
2023-04-18T00:37:38.441Z,8.25
2023-04-18T00:40:07.500Z,8.45
2023-04-18T00:42:35.467Z,8.27
2023-04-18T00:45:03.608Z,8.23
2023-04-18T00:47:31.589Z,8.17
2023-04-18T00:50:00.527Z,8.12
2023-04-18T00:52:29.900Z,8.14
2023-04-18T00:54:57.837Z,8.24
2023-04-18T00:57:25.933Z,8.11
2023-04-18T00:59:53.879Z,8.20
2023-04-18T01:02:22.357Z,8.13
2023-04-18T01:04:50.501Z,8.30
2023-04-18T01:07:18.434Z,8.24
2023-04-18T01:09:48.558Z,8.30
2023-04-18T01:12:16.645Z,8.20
2023-04-18T01:14:44.579Z,8.20
2023-04-18T01:17:13.538Z,8.30
2023-04-18T01:19:41.837Z,8.18
2023-04-18T01:22:10.906Z,8.22
2023-04-18T01:24:40.515Z,8.31
2023-04-18T01:27:08.649Z,8.13
2023-04-18T01:29:38.487Z,8.17
2023-04-18T01:32:07.786Z,8.18
2023-04-18T01:34:36.190Z,8.20
2023-04-18T01:37:04.116Z,8.15
2023-04-18T01:39:32.231Z,8.28
2023-04-18T01:42:02.244Z,8.28
2023-04-18T01:44:30.410Z,8.14
2023-04-18T01:46:58.449Z,8.13
2023-04-18T01:49:26.411Z,8.14
2023-04-18T01:51:54.304Z,8.02
2023-04-18T01:54:22.218Z,8.06
2023-04-18T01:56:50.188Z,8.23
2023-04-18T01:59:19.569Z,8.12
2023-04-18T02:01:47.756Z,8.26
2023-04-18T02:04:16.015Z,8.18
2023-04-18T02:06:44.292Z,8.29
2023-04-18T02:09:12.519Z,8.22
2023-04-18T02:11:40.425Z,8.34
2023-04-18T02:14:08.386Z,8.10
2023-04-18T02:16:38.923Z,8.22
2023-04-18T02:19:07.007Z,8.11
2023-04-18T02:21:34.963Z,8.28
2023-04-18T02:24:02.863Z,8.41
2023-04-18T02:26:31.212Z,8.03
2023-04-18T02:28:59.787Z,7.95
2023-04-18T02:31:28.367Z,8.06
2023-04-18T02:33:57.759Z,8.12
2023-04-18T02:36:26.887Z,8.02
2023-04-18T02:38:55.398Z,8.21
2023-04-18T02:41:23.678Z,8.13
2023-04-18T02:43:51.622Z,7.99
2023-04-18T02:46:19.749Z,7.85
2023-04-18T02:48:47.735Z,7.90
2023-04-18T02:51:17.409Z,7.71
2023-04-18T02:53:45.311Z,7.89
2023-04-18T02:56:16.963Z,7.99
2023-04-18T02:58:45.080Z,8.06
2023-04-18T03:01:13.091Z,8.25
2023-04-18T03:03:41.232Z,8.05
2023-04-18T03:06:09.283Z,8.11
2023-04-18T03:08:38.590Z,8.11
2023-04-18T03:11:06.747Z,8.03
2023-04-18T03:13:36.325Z,8.20
2023-04-18T03:16:04.474Z,8.22
2023-04-18T03:18:32.486Z,8.07
2023-04-18T03:21:00.835Z,8.11
2023-04-18T03:23:29.168Z,8.37
2023-04-18T03:25:58.491Z,8.27
2023-04-18T03:28:26.457Z,8.43
2023-04-18T03:30:54.385Z,8.50
2023-04-18T03:33:22.707Z,8.43
2023-04-18T03:35:50.814Z,8.33
2023-04-18T03:38:18.767Z,8.11
2023-04-18T03:40:46.663Z,8.36
2023-04-18T03:43:16.091Z,8.26
2023-04-18T03:45:47.524Z,8.37
2023-04-18T03:48:15.601Z,8.34
2023-04-18T03:50:43.904Z,8.13
2023-04-18T03:53:11.900Z,8.32
2023-04-18T03:55:40.308Z,8.40
2023-04-18T03:58:08.228Z,8.46
2023-04-18T04:00:37.624Z,8.53
2023-04-18T04:03:07.079Z,8.28
2023-04-18T04:05:35.376Z,8.41
2023-04-18T04:08:03.701Z,8.48
2023-04-18T04:10:31.655Z,8.59
2023-04-18T04:12:59.800Z,8.60
2023-04-18T04:15:27.716Z,8.57
2023-04-18T04:17:57.233Z,8.30
2023-04-18T04:20:25.920Z,8.31
2023-04-18T04:22:54.067Z,8.38
2023-04-18T04:25:24.326Z,8.24
2023-04-18T04:27:53.809Z,8.40
2023-04-18T04:30:22.339Z,8.32
2023-04-18T04:32:50.691Z,8.33
2023-04-18T04:35:20.461Z,8.36
2023-04-18T04:37:48.471Z,8.60
2023-04-18T04:40:17.623Z,8.32
2023-04-18T04:42:46.032Z,8.47
2023-04-18T04:45:14.000Z,8.68
2023-04-18T04:47:41.962Z,8.79
2023-04-18T04:50:14.816Z,8.68
2023-04-18T04:52:44.461Z,8.62
2023-04-18T04:55:12.448Z,8.80
2023-04-18T04:57:40.456Z,8.76
2023-04-18T05:00:09.497Z,8.62
2023-04-18T05:02:37.523Z,8.53
2023-04-18T05:05:06.434Z,8.53
2023-04-18T05:07:34.332Z,8.49
2023-04-18T05:10:04.277Z,8.78
2023-04-18T05:12:32.502Z,8.86
2023-04-18T05:15:00.468Z,8.76
2023-04-18T05:17:28.590Z,8.96
2023-04-18T05:19:56.529Z,9.13
2023-04-18T05:22:24.500Z,8.98
2023-04-18T05:24:52.417Z,9.21
2023-04-18T05:27:21.867Z,9.44
2023-04-18T05:29:50.434Z,9.82
2023-04-18T05:32:18.627Z,9.73
2023-04-18T05:34:47.007Z,9.98
2023-04-18T05:37:14.935Z,9.93
2023-04-18T05:39:43.308Z,10.07
2023-04-18T05:42:11.305Z,10.16
2023-04-18T05:44:41.004Z,10.14
2023-04-18T05:47:09.023Z,9.94
2023-04-18T05:49:37.393Z,9.95
2023-04-18T05:52:05.728Z,10.24
2023-04-18T05:54:33.738Z,10.13
2023-04-18T05:57:04.359Z,10.32
2023-04-18T05:59:32.777Z,10.67
2023-04-18T06:02:02.218Z,10.91
2023-04-18T06:04:30.449Z,10.99
2023-04-18T06:06:58.678Z,10.74
2023-04-18T06:09:26.611Z,10.88
2023-04-18T06:11:54.949Z,11.02
2023-04-18T06:14:22.859Z,10.97
2023-04-18T06:16:50.937Z,10.96
2023-04-18T06:19:20.383Z,10.98
2023-04-18T06:21:49.563Z,11.11
2023-04-18T06:24:17.595Z,10.99
2023-04-18T06:26:45.618Z,10.90
2023-04-18T06:29:13.545Z,10.79
2023-04-18T06:31:45.522Z,11.01
2023-04-18T06:34:14.099Z,10.84
2023-04-18T06:36:43.946Z,10.92
2023-04-18T06:39:11.925Z,11.01
2023-04-18T06:41:39.897Z,11.17
2023-04-18T06:44:08.051Z,11.18
2023-04-18T06:46:36.070Z,11.38
2023-04-18T06:49:03.990Z,11.43
2023-04-18T06:51:32.716Z,11.38
2023-04-18T06:54:02.991Z,11.23
2023-04-18T06:56:31.532Z,11.34
2023-04-18T06:58:59.799Z,11.11
2023-04-18T07:01:27.975Z,11.18
2023-04-18T07:03:56.049Z,11.19
2023-04-18T07:06:23.950Z,11.63
2023-04-18T07:08:54.417Z,11.63
2023-04-18T07:11:24.708Z,11.98
2023-04-18T07:13:53.046Z,11.83
2023-04-18T07:16:21.545Z,11.51
2023-04-18T07:18:50.190Z,11.90
2023-04-18T07:21:18.383Z,11.99
2023-04-18T07:23:46.441Z,11.47
2023-04-18T07:26:14.983Z,11.54
2023-04-18T07:28:44.280Z,11.40
2023-04-18T07:31:14.534Z,11.80
2023-04-18T07:33:43.526Z,11.68
2023-04-18T07:36:11.765Z,11.55
2023-04-18T07:38:40.221Z,11.61
2023-04-18T07:41:08.131Z,11.48
2023-04-18T07:43:36.032Z,11.58
2023-04-18T07:46:05.470Z,11.85
2023-04-18T07:48:33.467Z,11.56
2023-04-18T07:51:01.410Z,11.54
2023-04-18T07:53:29.351Z,11.45
2023-04-18T07:55:57.316Z,11.82
2023-04-18T07:58:25.670Z,11.73
2023-04-18T08:00:53.647Z,11.88
2023-04-18T08:03:23.156Z,11.69
2023-04-18T08:05:51.979Z,11.91
2023-04-18T08:08:20.296Z,11.79
2023-04-18T08:10:48.227Z,11.85
2023-04-18T08:13:16.305Z,12.05
2023-04-18T08:15:44.245Z,11.98
2023-04-18T08:18:12.127Z,12.01
2023-04-18T08:20:41.588Z,11.88
2023-04-18T08:23:12.190Z,11.86
2023-04-18T08:25:41.116Z,11.82
2023-04-18T08:28:09.792Z,11.93
2023-04-18T08:30:37.762Z,11.72
2023-04-18T08:33:05.729Z,11.72
2023-04-18T08:35:35.342Z,11.75
2023-04-18T08:38:04.665Z,11.79
2023-04-18T08:40:32.698Z,11.88
2023-04-18T08:43:04.953Z,11.80
2023-04-18T08:45:33.518Z,11.60
2023-04-18T08:48:03.680Z,11.67
2023-04-18T08:50:32.042Z,11.79
2023-04-18T08:53:00.995Z,11.79
2023-04-18T08:55:30.496Z,11.88
2023-04-18T08:57:59.744Z,11.87
2023-04-18T09:00:29.455Z,12.10
2023-04-18T09:02:57.752Z,12.36
2023-04-18T09:05:27.720Z,12.58
2023-04-18T09:07:56.869Z,12.71
2023-04-18T09:10:33.909Z,12.90
2023-04-18T09:13:04.386Z,12.96
2023-04-18T09:15:32.981Z,12.49
2023-04-18T09:18:03.686Z,12.67
2023-04-18T09:20:38.519Z,12.76
2023-04-18T09:23:11.223Z,12.80
2023-04-18T09:25:46.885Z,12.68
2023-04-18T09:28:27.170Z,12.57
2023-04-18T09:30:56.652Z,12.25
2023-04-18T09:33:29.732Z,12.44
2023-04-18T09:36:00.355Z,12.80
2023-04-18T09:38:41.379Z,13.00
2023-04-18T09:41:11.701Z,13.00
2023-04-18T09:43:39.964Z,12.72
2023-04-18T09:46:09.579Z,12.91
2023-04-18T09:48:38.447Z,13.11
2023-04-18T09:51:08.370Z,13.24
2023-04-18T09:53:41.004Z,13.20
2023-04-18T09:56:16.630Z,13.45
2023-04-18T09:58:46.313Z,13.76
2023-04-18T10:01:14.343Z,13.82
2023-04-18T10:03:46.356Z,13.63
2023-04-18T10:06:17.879Z,13.68
2023-04-18T10:08:46.039Z,13.22
2023-04-18T10:11:16.157Z,13.23
2023-04-18T10:13:48.870Z,13.19
2023-04-18T10:16:18.366Z,13.15
2023-04-18T10:18:46.514Z,13.16
2023-04-18T10:21:14.606Z,13.23
2023-04-18T10:23:42.746Z,13.16
2023-04-18T10:26:11.678Z,13.27
2023-04-18T10:28:56.964Z,13.28
2023-04-18T10:31:27.306Z,13.30
2023-04-18T10:36:28.910Z,12.74
2023-04-18T10:39:01.133Z,12.83
2023-04-18T10:41:30.354Z,12.63
2023-04-18T10:44:24.448Z,12.99
2023-04-18T10:47:32.249Z,13.13
2023-04-18T10:50:06.104Z,12.97
2023-04-18T10:52:34.547Z,13.38
2023-04-18T10:55:11.516Z,13.63
2023-04-18T10:57:41.374Z,14.06
2023-04-18T11:00:14.188Z,14.13
2023-04-18T11:02:50.678Z,14.08
2023-04-18T11:05:23.817Z,14.09
2023-04-18T11:07:51.940Z,14.16
2023-04-18T11:10:21.550Z,14.33
2023-04-18T11:12:49.898Z,14.46
2023-04-18T11:15:22.593Z,14.38
2023-04-18T11:17:59.416Z,14.14
2023-04-18T11:20:27.879Z,13.97
2023-04-18T11:22:57.340Z,14.23
2023-04-18T11:25:29.373Z,14.18
2023-04-18T11:28:00.879Z,14.23
2023-04-18T11:30:39.488Z,14.42
2023-04-18T11:33:09.504Z,14.29
2023-04-18T11:35:41.584Z,14.18
2023-04-18T11:38:10.555Z,13.93
2023-04-18T11:40:39.245Z,13.34
2023-04-18T11:43:08.880Z,13.55
2023-04-18T11:45:38.507Z,13.62
2023-04-18T11:48:06.916Z,13.58
2023-04-18T11:50:38.402Z,13.53
2023-04-18T11:53:06.405Z,13.59
2023-04-18T11:55:34.452Z,13.81
2023-04-18T11:58:03.335Z,14.13
2023-04-18T12:00:34.277Z,13.87
2023-04-18T12:03:05.697Z,14.14
2023-04-18T12:05:36.308Z,14.13
2023-04-18T12:08:08.911Z,14.38
2023-04-18T12:10:37.511Z,14.39
2023-04-18T12:13:09.273Z,14.12
2023-04-18T12:15:40.564Z,13.96
2023-04-18T12:18:10.260Z,13.54
2023-04-18T12:20:39.784Z,13.89
2023-04-18T12:23:08.177Z,13.87
2023-04-18T12:25:36.812Z,14.03
2023-04-18T12:28:14.828Z,14.06
2023-04-18T12:30:43.547Z,13.70
2023-04-18T12:33:13.224Z,13.87
2023-04-18T12:35:41.294Z,13.35
2023-04-18T12:38:09.403Z,13.63
2023-04-18T12:40:41.009Z,13.97
2023-04-18T12:43:10.716Z,14.09
2023-04-18T12:45:39.162Z,14.17
2023-04-18T12:48:08.280Z,14.15
2023-04-18T12:50:37.658Z,14.15
2023-04-18T12:53:06.524Z,14.22
2023-04-18T12:55:35.044Z,14.57
2023-04-18T12:58:03.203Z,14.72
2023-04-18T13:00:33.110Z,14.84
2023-04-18T13:03:01.515Z,14.49
2023-04-18T13:05:33.533Z,14.70
2023-04-18T13:10:34.538Z,14.79
2023-04-18T13:13:02.554Z,14.61
2023-04-18T13:15:30.846Z,14.65
2023-04-18T13:18:04.472Z,14.32
2023-04-18T13:20:33.166Z,14.45
2023-04-18T13:23:01.215Z,14.38
2023-04-18T13:25:30.846Z,14.21
2023-04-18T13:28:00.921Z,14.47
2023-04-18T13:30:29.671Z,14.54
2023-04-18T13:32:57.876Z,14.92
2023-04-18T13:35:26.113Z,14.93
2023-04-18T13:37:54.135Z,14.87
2023-04-18T13:40:22.334Z,14.45
2023-04-18T13:42:51.873Z,14.37
2023-04-18T13:45:20.737Z,14.19
2023-04-18T13:47:49.207Z,14.18
2023-04-18T13:50:17.734Z,13.95
2023-04-18T13:52:48.208Z,14.23
2023-04-18T13:55:18.064Z,14.25
2023-04-18T13:57:46.109Z,13.97
2023-04-18T14:00:17.707Z,13.90
2023-04-18T14:02:46.333Z,13.88
2023-04-18T14:05:14.682Z,13.96
2023-04-18T14:07:43.208Z,14.06
2023-04-18T14:10:12.335Z,14.10
2023-04-18T14:12:40.516Z,14.20
2023-04-18T14:15:10.265Z,14.10
2023-04-18T14:17:39.864Z,14.09
2023-04-18T14:20:09.338Z,13.96
2023-04-18T14:22:37.854Z,14.16
2023-04-18T14:25:06.877Z,14.09
2023-04-18T14:27:35.033Z,14.40
2023-04-18T14:30:03.087Z,14.29
2023-04-18T14:32:31.648Z,14.39
2023-04-18T14:35:01.313Z,14.35
2023-04-18T14:37:29.450Z,14.55
2023-04-18T14:39:57.417Z,14.44
2023-04-18T14:42:25.556Z,14.64
2023-04-18T14:44:54.000Z,14.51
2023-04-18T14:47:24.368Z,14.57
2023-04-18T14:49:52.585Z,14.33
2023-04-18T14:52:22.060Z,14.36
2023-04-18T14:54:50.386Z,14.51
2023-04-18T14:57:18.486Z,14.44
2023-04-18T14:59:46.493Z,14.36
2023-04-18T15:02:14.694Z,14.52
2023-04-18T15:04:43.012Z,14.21
2023-04-18T15:07:11.151Z,14.50
2023-04-18T15:09:41.073Z,14.57
2023-04-18T15:12:09.510Z,14.61
2023-04-18T15:14:38.137Z,14.34
2023-04-18T15:17:07.018Z,14.26
2023-04-18T15:19:34.970Z,14.56
2023-04-18T15:22:03.173Z,14.20
2023-04-18T15:24:31.188Z,14.21
2023-04-18T15:27:01.563Z,14.49
2023-04-18T15:29:29.715Z,14.56
2023-04-18T15:31:57.944Z,14.57
2023-04-18T15:34:26.400Z,14.43
2023-04-18T15:36:54.398Z,14.53
2023-04-18T15:39:23.675Z,14.63
2023-04-18T15:41:54.964Z,14.44
2023-04-18T15:44:25.182Z,14.43
2023-04-18T15:46:53.283Z,14.44
2023-04-18T15:49:21.527Z,14.27
2023-04-18T15:51:50.039Z,14.24
2023-04-18T15:54:18.189Z,14.14
2023-04-18T15:56:46.241Z,14.10
2023-04-18T15:59:14.763Z,14.16
2023-04-18T16:01:46.153Z,14.09
2023-04-18T16:04:14.685Z,14.19
2023-04-18T16:06:43.296Z,14.19
2023-04-18T16:09:11.484Z,14.16
2023-04-18T16:11:39.438Z,14.11
2023-04-18T16:14:07.738Z,14.07
2023-04-18T16:16:35.975Z,14.12
2023-04-18T16:19:05.767Z,14.24
2023-04-18T16:21:33.851Z,14.13
2023-04-18T16:24:02.046Z,14.09
2023-04-18T16:26:30.044Z,14.03
2023-04-18T16:28:58.167Z,14.01
2023-04-18T16:31:26.370Z,14.18
2023-04-18T16:33:54.536Z,13.98
2023-04-18T16:36:23.961Z,14.13
2023-04-18T16:38:52.116Z,14.14
2023-04-18T16:41:20.047Z,14.24
2023-04-18T16:43:47.960Z,14.14
2023-04-18T16:46:16.124Z,14.16
2023-04-18T16:48:45.290Z,14.10
2023-04-18T16:51:13.309Z,14.20
2023-04-18T16:53:43.031Z,14.32
2023-04-18T16:56:11.073Z,14.34
2023-04-18T16:58:39.375Z,14.34
2023-04-18T17:01:08.239Z,14.29
2023-04-18T17:03:36.608Z,14.36
2023-04-18T17:06:05.110Z,14.30
2023-04-18T17:08:33.809Z,14.36
2023-04-18T17:11:03.175Z,14.41
2023-04-18T17:13:31.784Z,14.38
2023-04-18T17:15:59.840Z,14.42
2023-04-18T17:18:28.947Z,14.38
2023-04-18T17:20:56.904Z,14.38
2023-04-18T17:23:24.852Z,14.39
2023-04-18T17:25:52.809Z,14.25
2023-04-18T17:28:23.714Z,14.19
2023-04-18T17:30:51.981Z,14.17
2023-04-18T17:33:19.898Z,14.22
2023-04-18T17:35:48.304Z,14.20
2023-04-18T17:38:16.271Z,14.05
2023-04-18T17:40:44.357Z,14.08
2023-04-18T17:43:12.652Z,14.05
2023-04-18T17:45:42.668Z,13.98
2023-04-18T17:48:10.635Z,13.96
2023-04-18T17:50:38.668Z,13.85
2023-04-18T17:53:06.604Z,13.92
2023-04-18T17:55:34.530Z,13.81
2023-04-18T17:58:02.488Z,13.50
2023-04-18T18:00:31.564Z,13.21
2023-04-18T18:03:01.789Z,13.26
2023-04-18T18:05:30.303Z,13.24
2023-04-18T18:07:58.459Z,13.14
2023-04-18T18:10:26.860Z,13.19
2023-04-18T18:12:54.761Z,13.14
2023-04-18T18:15:24.174Z,13.07
2023-04-18T18:17:52.447Z,12.75
2023-04-18T18:20:21.888Z,12.96
2023-04-18T18:22:49.924Z,12.98
2023-04-18T18:25:17.991Z,12.96
2023-04-18T18:27:45.994Z,12.96
2023-04-18T18:30:14.786Z,12.77
2023-04-18T18:32:42.870Z,12.99
2023-04-18T18:35:11.065Z,12.80
2023-04-18T18:37:40.943Z,12.55
2023-04-18T18:40:10.280Z,12.70
2023-04-18T18:42:38.255Z,12.77
2023-04-18T18:45:07.595Z,12.64
2023-04-18T18:47:37.489Z,12.36
2023-04-18T18:50:07.870Z,12.39
2023-04-18T18:52:35.866Z,12.46
2023-04-18T18:55:06.090Z,12.33
2023-04-18T18:57:34.377Z,12.44
2023-04-18T19:00:02.363Z,12.42
2023-04-18T19:02:30.642Z,12.45
2023-04-18T19:04:59.155Z,12.30
2023-04-18T19:07:28.880Z,12.39
2023-04-18T19:09:59.605Z,12.48
2023-04-18T19:12:29.391Z,12.53
2023-04-18T19:14:57.583Z,12.62
2023-04-18T19:17:25.799Z,12.71
2023-04-18T19:19:57.903Z,12.50
2023-04-18T19:22:26.070Z,12.58
2023-04-18T19:24:54.085Z,12.52
2023-04-18T19:27:22.120Z,12.47
2023-04-18T19:29:51.434Z,12.50
2023-04-18T19:32:19.410Z,12.39
2023-04-18T19:34:47.422Z,12.41
2023-04-18T19:37:15.724Z,12.59
2023-04-18T19:39:43.684Z,12.39
2023-04-18T19:42:11.647Z,12.42
2023-04-18T19:44:39.722Z,12.30
2023-04-18T19:47:09.553Z,12.10
2023-04-18T19:49:37.911Z,12.00
2023-04-18T19:52:06.202Z,12.03
2023-04-18T19:54:34.415Z,12.08
2023-04-18T19:57:02.792Z,12.10
2023-04-18T19:59:30.909Z,12.10
2023-04-18T20:02:01.431Z,11.83
2023-04-18T20:04:34.394Z,11.90
2023-04-18T20:07:02.683Z,12.06
2023-04-18T20:09:30.806Z,11.84
2023-04-18T20:12:01.476Z,11.64
2023-04-18T20:14:29.695Z,11.85
2023-04-18T20:16:58.021Z,11.83
2023-04-18T20:19:27.001Z,11.86
2023-04-18T20:21:56.328Z,11.73
2023-04-18T20:24:28.050Z,11.78
2023-04-18T20:26:57.427Z,11.49
2023-04-18T20:29:25.618Z,11.64
2023-04-18T20:31:53.556Z,11.67
2023-04-18T20:34:21.822Z,11.43
2023-04-18T20:36:50.054Z,11.37
2023-04-18T20:39:19.695Z,11.40
2023-04-18T20:41:51.462Z,11.19
2023-04-18T20:44:21.738Z,11.19
2023-04-18T20:46:50.007Z,11.20
2023-04-18T20:49:18.453Z,10.96
2023-04-18T20:51:46.972Z,10.92
2023-04-18T20:54:15.337Z,10.92
2023-04-18T20:56:44.979Z,10.82
2023-04-18T20:59:13.386Z,10.91
2023-04-18T21:01:41.498Z,10.81
2023-04-18T21:04:10.015Z,10.80
2023-04-18T21:06:38.516Z,10.70
2023-04-18T21:09:06.614Z,10.65
2023-04-18T21:11:34.755Z,10.70
2023-04-18T21:14:06.830Z,10.63
2023-04-18T21:16:35.540Z,10.67
2023-04-18T21:19:03.791Z,10.54
2023-04-18T21:21:34.385Z,10.49
2023-04-18T21:24:02.602Z,10.58
2023-04-18T21:26:30.706Z,10.50
2023-04-18T21:29:00.540Z,10.60
2023-04-18T21:31:31.885Z,10.49
2023-04-18T21:34:01.280Z,10.50
2023-04-18T21:36:30.830Z,10.43
2023-04-18T21:39:00.611Z,10.51
2023-04-18T21:41:29.039Z,10.31
2023-04-18T21:43:57.036Z,10.47
2023-04-18T21:46:25.052Z,10.42
2023-04-18T21:48:54.741Z,10.32
2023-04-18T21:51:22.816Z,10.05
2023-04-18T21:53:51.231Z,10.18
2023-04-18T21:56:19.216Z,10.31
2023-04-18T21:58:47.828Z,10.38
2023-04-18T22:01:15.830Z,10.24
2023-04-18T22:03:44.324Z,10.24
2023-04-18T22:06:14.150Z,10.03
2023-04-18T22:08:43.906Z,10.25
2023-04-18T22:11:13.707Z,10.27
2023-04-18T22:13:45.074Z,10.05
2023-04-18T22:16:13.419Z,9.88
2023-04-18T22:18:41.470Z,9.73
2023-04-18T22:21:10.701Z,9.85
2023-04-18T22:23:40.190Z,9.64
2023-04-18T22:26:08.424Z,9.77
2023-04-18T22:28:36.555Z,9.95
2023-04-18T22:31:05.059Z,9.84
2023-04-18T22:33:33.613Z,9.57
2023-04-18T22:36:02.130Z,9.80
2023-04-18T22:38:30.375Z,9.43
2023-04-18T22:41:00.405Z,9.54
2023-04-18T22:43:28.411Z,9.67
2023-04-18T22:45:56.794Z,9.54
2023-04-18T22:48:24.729Z,9.33
2023-04-18T22:50:52.867Z,9.46
2023-04-18T22:53:21.000Z,9.39
2023-04-18T22:55:49.042Z,9.40
2023-04-18T22:58:18.611Z,9.47
2023-04-18T23:00:46.663Z,9.53
2023-04-18T23:03:14.720Z,9.55
2023-04-18T23:05:42.957Z,9.41
2023-04-18T23:08:12.021Z,9.55
2023-04-18T23:10:40.118Z,9.55
2023-04-18T23:13:08.173Z,9.60
2023-04-18T23:15:37.875Z,9.67
2023-04-18T23:18:05.876Z,9.64
2023-04-18T23:20:33.860Z,9.59
2023-04-18T23:23:02.231Z,9.53
2023-04-18T23:25:32.496Z,9.44
2023-04-18T23:28:00.849Z,9.51
2023-04-18T23:30:28.833Z,9.38
2023-04-18T23:32:58.135Z,9.43
2023-04-18T23:35:26.095Z,9.44
2023-04-18T23:37:54.125Z,9.02
2023-04-18T23:40:22.562Z,9.52
2023-04-18T23:42:50.622Z,9.46
2023-04-18T23:45:18.635Z,9.42
2023-04-18T23:47:46.622Z,9.46
2023-04-18T23:50:15.914Z,9.46
2023-04-18T23:52:43.957Z,9.40
2023-04-18T23:55:11.989Z,9.44
2023-04-18T23:57:40.084Z,9.49
